createdAt,value
2023-05-16T00:00:26.365Z,87.71
2023-05-16T00:01:26.077Z,87.61
2023-05-16T00:02:26.303Z,87.51
2023-05-16T00:03:26.117Z,87.37
2023-05-16T00:04:26.152Z,87.16
2023-05-16T00:05:26.041Z,87.16
2023-05-16T00:06:26.042Z,86.86
2023-05-16T00:07:26.040Z,86.55
2023-05-16T00:08:26.044Z,86.55
2023-05-16T00:09:25.977Z,86.25
2023-05-16T00:10:26.198Z,86.25
2023-05-16T00:11:25.946Z,86.15
2023-05-16T00:12:26.019Z,85.84
2023-05-16T00:13:25.989Z,85.64
2023-05-16T00:14:25.906Z,85.74
2023-05-16T00:15:25.946Z,85.53
2023-05-16T00:16:26.070Z,85.53
2023-05-16T00:17:25.959Z,85.53
2023-05-16T00:18:25.877Z,85.53
2023-05-16T00:19:25.876Z,85.44
2023-05-16T00:20:26.309Z,85.53
2023-05-16T00:21:25.872Z,85.53
2023-05-16T00:22:25.916Z,85.53
2023-05-16T00:23:25.903Z,85.64
2023-05-16T00:24:25.838Z,85.74
2023-05-16T00:25:25.812Z,85.84
2023-05-16T00:26:25.807Z,85.98
2023-05-16T00:27:25.828Z,86.19
2023-05-16T00:28:25.923Z,86.59
2023-05-16T00:29:25.756Z,86.80
2023-05-16T00:30:26.034Z,86.90
2023-05-16T00:31:25.766Z,87.00
2023-05-16T00:32:25.833Z,87.20
2023-05-16T00:33:25.725Z,87.40
2023-05-16T00:34:25.836Z,87.61
2023-05-16T00:35:25.707Z,87.71
2023-05-16T00:36:25.737Z,87.92
2023-05-16T00:37:25.704Z,88.01
2023-05-16T00:38:25.729Z,88.16
2023-05-16T00:39:25.726Z,88.36
2023-05-16T00:40:25.947Z,88.36
2023-05-16T00:41:25.677Z,88.46
2023-05-16T00:42:25.651Z,88.67
2023-05-16T00:43:25.656Z,88.67
2023-05-16T00:44:25.595Z,88.76
2023-05-16T00:45:25.646Z,88.87
2023-05-16T00:46:25.628Z,88.87
2023-05-16T00:47:25.708Z,88.97
2023-05-16T00:48:25.622Z,89.17
2023-05-16T00:49:25.665Z,89.17
2023-05-16T00:50:25.870Z,89.37
2023-05-16T00:51:25.561Z,89.52
2023-05-16T00:52:25.587Z,89.62
2023-05-16T00:53:25.568Z,89.52
2023-05-16T00:54:25.524Z,89.62
2023-05-16T00:55:25.515Z,89.83
2023-05-16T00:56:25.478Z,89.83
2023-05-16T00:57:25.475Z,90.03
2023-05-16T00:58:25.465Z,90.23
2023-05-16T00:59:25.470Z,90.44
2023-05-16T01:00:25.699Z,90.53
2023-05-16T01:01:25.516Z,90.53
2023-05-16T01:02:25.491Z,90.74
2023-05-16T01:03:27.344Z,90.84
2023-05-16T01:04:25.465Z,90.94
2023-05-16T01:05:25.655Z,91.05
2023-05-16T01:06:25.381Z,91.05
2023-05-16T01:07:25.401Z,91.05
2023-05-16T01:08:25.385Z,91.19
2023-05-16T01:09:25.381Z,91.39
2023-05-16T01:10:25.384Z,91.39
2023-05-16T01:11:25.327Z,91.49
2023-05-16T01:12:25.343Z,91.49
2023-05-16T01:13:25.309Z,91.60
2023-05-16T01:14:25.293Z,91.69
2023-05-16T01:15:25.520Z,91.90
2023-05-16T01:16:25.296Z,92.10
2023-05-16T01:17:25.330Z,92.30
2023-05-16T01:18:25.269Z,92.51
2023-05-16T01:19:25.291Z,92.65
2023-05-16T01:20:25.244Z,92.65
2023-05-16T01:21:25.224Z,92.76
2023-05-16T01:22:25.207Z,92.96
2023-05-16T01:23:25.233Z,93.06
2023-05-16T01:24:25.186Z,93.16
2023-05-16T01:25:25.377Z,93.37
2023-05-16T01:26:25.315Z,93.37
2023-05-16T01:27:25.317Z,93.37
2023-05-16T01:28:25.163Z,93.82
2023-05-16T01:29:25.159Z,93.92
2023-05-16T01:30:25.169Z,93.92
2023-05-16T01:31:25.152Z,93.77
2023-05-16T01:32:25.235Z,93.82
2023-05-16T01:33:25.137Z,93.92
2023-05-16T01:34:25.063Z,94.12
2023-05-16T01:35:25.274Z,94.23
2023-05-16T01:36:25.064Z,94.12
2023-05-16T01:37:25.061Z,94.23
2023-05-16T01:38:25.048Z,94.23
2023-05-16T01:39:25.085Z,94.23
2023-05-16T01:40:25.001Z,94.23
2023-05-16T01:41:25.058Z,94.23
2023-05-16T01:42:25.004Z,94.32
2023-05-16T01:43:24.995Z,94.32
2023-05-16T01:44:25.019Z,94.12
2023-05-16T01:45:25.291Z,94.17
2023-05-16T01:46:24.993Z,94.27
2023-05-16T01:47:24.991Z,94.27
2023-05-16T01:48:24.956Z,94.27
2023-05-16T01:49:24.917Z,94.17
2023-05-16T01:50:24.957Z,94.07
2023-05-16T01:51:24.951Z,94.47
2023-05-16T01:52:24.894Z,94.42
2023-05-16T01:53:24.870Z,94.37
2023-05-16T01:54:24.907Z,94.52
2023-05-16T01:55:25.134Z,94.52
2023-05-16T01:56:24.852Z,94.31
2023-05-16T01:57:24.880Z,94.27
2023-05-16T01:58:24.863Z,94.21
2023-05-16T01:59:24.849Z,94.11
2023-05-16T02:00:24.829Z,94.01
2023-05-16T02:01:24.838Z,93.90
2023-05-16T02:02:24.851Z,94.01
2023-05-16T02:03:24.814Z,94.11
2023-05-16T02:04:24.777Z,94.11
2023-05-16T02:05:24.934Z,93.90
2023-05-16T02:06:24.740Z,93.80
2023-05-16T02:07:24.762Z,93.90
2023-05-16T02:08:24.742Z,94.01
2023-05-16T02:09:24.730Z,93.80
2023-05-16T02:10:24.689Z,93.70
2023-05-16T02:11:24.717Z,93.60
2023-05-16T02:12:24.669Z,93.54
2023-05-16T02:13:24.683Z,93.70
2023-05-16T02:14:24.671Z,93.60
2023-05-16T02:15:24.818Z,93.50
2023-05-16T02:16:24.671Z,93.29
2023-05-16T02:17:24.700Z,93.24
2023-05-16T02:18:24.660Z,93.54
2023-05-16T02:19:24.612Z,93.44
2023-05-16T02:20:24.620Z,93.13
2023-05-16T02:21:24.611Z,92.83
2023-05-16T02:22:24.566Z,92.58
2023-05-16T02:23:24.623Z,92.52
2023-05-16T02:25:43.887Z,92.63
2023-05-16T02:26:44.195Z,92.42
2023-05-16T02:27:46.983Z,92.01
2023-05-16T02:28:44.151Z,92.01
2023-05-16T02:29:44.143Z,92.32
2023-05-16T02:30:44.183Z,92.36
2023-05-16T02:31:44.134Z,92.26
2023-05-16T02:32:44.189Z,92.26
2023-05-16T02:33:44.088Z,92.16
2023-05-16T02:34:44.124Z,92.26
2023-05-16T02:35:44.056Z,91.75
2023-05-16T02:36:44.084Z,91.35
2023-05-16T02:37:44.048Z,91.35
2023-05-16T02:38:44.012Z,91.55
2023-05-16T02:39:43.987Z,91.79
2023-05-16T02:40:43.987Z,91.79
2023-05-16T02:41:43.970Z,91.79
2023-05-16T02:42:43.996Z,91.89
2023-05-16T02:43:46.732Z,91.75
2023-05-16T02:44:43.953Z,91.55
2023-05-16T02:45:43.921Z,91.59
2023-05-16T02:46:44.004Z,91.59
2023-05-16T02:47:43.975Z,91.59
2023-05-16T02:48:43.873Z,91.59
2023-05-16T02:49:43.871Z,91.79
2023-05-16T02:50:43.880Z,91.79
2023-05-16T02:51:43.874Z,91.79
2023-05-16T02:52:43.892Z,91.89
2023-05-16T02:53:43.895Z,91.79
2023-05-16T02:54:44.514Z,91.59
2023-05-16T02:55:43.797Z,91.69
2023-05-16T02:56:43.865Z,91.59
2023-05-16T02:57:43.842Z,91.39
2023-05-16T02:58:43.930Z,91.39
2023-05-16T02:59:43.760Z,91.49
2023-05-16T03:00:43.799Z,91.28
2023-05-16T03:01:43.825Z,91.28
2023-05-16T03:02:43.796Z,91.18
2023-05-16T03:03:43.819Z,91.28
2023-05-16T03:04:43.722Z,91.28
2023-05-16T03:05:43.748Z,91.18
2023-05-16T03:06:43.694Z,91.08
2023-05-16T03:07:43.698Z,91.08
2023-05-16T03:08:43.691Z,91.08
2023-05-16T03:09:43.676Z,91.08
2023-05-16T03:10:43.693Z,91.28
2023-05-16T03:11:43.637Z,91.28
2023-05-16T03:12:43.606Z,91.39
2023-05-16T03:13:43.628Z,91.28
2023-05-16T03:14:43.615Z,91.28
2023-05-16T03:15:43.637Z,91.28
2023-05-16T03:16:43.714Z,91.18
2023-05-16T03:17:43.613Z,91.28
2023-05-16T03:18:43.586Z,91.59
2023-05-16T03:19:43.572Z,91.69
2023-05-16T03:20:43.620Z,91.69
2023-05-16T03:21:43.567Z,91.49
2023-05-16T03:22:43.516Z,91.18
2023-05-16T03:23:43.546Z,91.18
2023-05-16T03:24:43.620Z,91.18
2023-05-16T03:25:43.538Z,91.08
2023-05-16T03:26:43.506Z,91.28
2023-05-16T03:27:43.500Z,91.18
2023-05-16T03:28:43.526Z,91.08
2023-05-16T03:29:43.473Z,91.08
2023-05-16T03:30:43.485Z,91.18
2023-05-16T03:31:43.514Z,91.28
2023-05-16T03:32:43.505Z,91.28
2023-05-16T03:33:43.457Z,91.18
2023-05-16T03:34:43.458Z,91.39
2023-05-16T03:35:43.430Z,91.49
2023-05-16T03:36:43.433Z,91.53
2023-05-16T03:37:43.493Z,91.74
2023-05-16T03:38:43.386Z,91.74
2023-05-16T03:39:43.369Z,91.83
2023-05-16T03:40:43.338Z,92.14
2023-05-16T03:41:43.397Z,92.04
2023-05-16T03:42:43.306Z,92.14
2023-05-16T03:43:43.304Z,91.94
2023-05-16T03:44:43.305Z,91.74
2023-05-16T03:45:43.342Z,92.14
2023-05-16T03:46:43.261Z,92.35
2023-05-16T03:47:43.304Z,92.35
2023-05-16T03:48:43.297Z,92.24
2023-05-16T03:49:43.238Z,92.24
2023-05-16T03:50:43.245Z,92.35
2023-05-16T03:51:43.253Z,92.45
2023-05-16T03:52:43.268Z,92.35
2023-05-16T03:53:43.207Z,92.35
2023-05-16T03:54:43.201Z,92.35
2023-05-16T03:55:43.192Z,92.45
2023-05-16T03:56:43.194Z,92.45
2023-05-16T03:57:43.278Z,92.45
2023-05-16T03:58:43.141Z,92.45
2023-05-16T03:59:43.132Z,92.24
2023-05-16T04:00:43.140Z,92.04
2023-05-16T04:01:43.217Z,92.14
2023-05-16T04:02:43.217Z,92.45
2023-05-16T04:03:43.127Z,92.59
2023-05-16T04:04:43.111Z,92.59
2023-05-16T04:05:43.204Z,92.69
2023-05-16T04:06:43.093Z,92.55
2023-05-16T04:07:43.080Z,92.49
2023-05-16T04:08:43.094Z,92.80
2023-05-16T04:09:43.061Z,92.90
2023-05-16T04:10:43.068Z,93.00
2023-05-16T04:11:43.020Z,93.31
2023-05-16T04:12:43.012Z,93.21
2023-05-16T04:13:43.036Z,92.90
2023-05-16T04:14:43.026Z,93.10
2023-05-16T04:15:42.968Z,93.31
2023-05-16T04:16:42.979Z,93.00
2023-05-16T04:17:43.044Z,93.10
2023-05-16T04:18:42.990Z,93.21
2023-05-16T04:19:42.946Z,93.31
2023-05-16T04:20:42.935Z,93.41
2023-05-16T04:21:42.906Z,93.41
2023-05-16T04:22:42.915Z,93.41
2023-05-16T04:23:42.951Z,93.21
2023-05-16T04:24:42.958Z,93.00
2023-05-16T04:25:42.891Z,93.10
2023-05-16T04:26:42.879Z,92.90
2023-05-16T04:27:42.854Z,92.90
2023-05-16T04:28:42.858Z,92.90
2023-05-16T04:29:42.845Z,92.90
2023-05-16T04:30:42.906Z,92.76
2023-05-16T04:31:42.866Z,92.55
2023-05-16T04:32:42.842Z,92.49
2023-05-16T04:33:42.811Z,92.59
2023-05-16T04:34:42.774Z,92.69
2023-05-16T04:35:42.809Z,92.80
2023-05-16T04:36:42.788Z,92.69
2023-05-16T04:37:42.804Z,92.65
2023-05-16T04:38:42.744Z,92.24
2023-05-16T04:39:42.731Z,92.35
2023-05-16T04:40:42.741Z,92.35
2023-05-16T04:41:42.711Z,91.94
2023-05-16T04:42:42.680Z,91.59
2023-05-16T04:43:42.684Z,91.43
2023-05-16T04:44:42.683Z,91.74
2023-05-16T04:45:42.701Z,92.04
2023-05-16T04:46:42.747Z,92.45
2023-05-16T04:47:42.682Z,91.43
2023-05-16T04:48:42.692Z,91.43
2023-05-16T04:49:42.612Z,91.74
2023-05-16T04:50:42.644Z,91.98
2023-05-16T04:51:42.659Z,91.78
2023-05-16T04:52:42.598Z,92.59
2023-05-16T04:53:42.575Z,92.29
2023-05-16T04:54:42.616Z,92.19
2023-05-16T04:55:42.578Z,92.19
2023-05-16T04:56:42.574Z,92.29
2023-05-16T04:57:42.550Z,92.29
2023-05-16T04:58:42.998Z,92.08
2023-05-16T04:59:42.539Z,91.98
2023-05-16T05:00:42.517Z,92.19
2023-05-16T05:01:42.581Z,91.47
2023-05-16T05:02:42.570Z,92.08
2023-05-16T05:03:42.509Z,92.13
2023-05-16T05:04:42.542Z,93.09
2023-05-16T05:05:42.611Z,93.25
2023-05-16T05:06:42.470Z,93.15
2023-05-16T05:07:42.532Z,92.94
2023-05-16T05:08:42.438Z,92.94
2023-05-16T05:09:42.411Z,92.94
2023-05-16T05:10:42.474Z,92.74
2023-05-16T05:11:42.452Z,92.78
2023-05-16T05:12:42.430Z,93.09
2023-05-16T05:13:42.409Z,93.29
2023-05-16T05:14:42.373Z,93.09
2023-05-16T05:15:42.414Z,93.09
2023-05-16T05:16:42.339Z,93.09
2023-05-16T05:17:42.422Z,92.94
2023-05-16T05:18:42.433Z,92.84
2023-05-16T05:19:42.447Z,92.64
2023-05-16T05:20:42.308Z,92.88
2023-05-16T05:21:42.301Z,92.74
2023-05-16T05:22:42.290Z,92.84
2023-05-16T05:23:42.320Z,92.84
2023-05-16T05:24:42.333Z,92.23
2023-05-16T05:25:42.261Z,92.33
2023-05-16T05:26:42.271Z,92.33
2023-05-16T05:27:42.207Z,91.92
2023-05-16T05:28:47.778Z,92.13
2023-05-16T05:29:43.362Z,91.82
2023-05-16T05:30:43.236Z,91.72
2023-05-16T05:31:42.209Z,91.57
2023-05-16T05:32:42.304Z,91.61
2023-05-16T05:33:42.169Z,92.13
2023-05-16T05:34:42.156Z,91.61
2023-05-16T05:35:42.167Z,91.52
2023-05-16T05:36:42.164Z,91.52
2023-05-16T05:37:42.108Z,91.72
2023-05-16T05:38:42.118Z,91.92
2023-05-16T05:39:42.130Z,91.52
2023-05-16T05:40:42.095Z,91.41
2023-05-16T05:41:42.067Z,91.00
2023-05-16T05:42:43.583Z,90.90
2023-05-16T05:43:42.049Z,91.00
2023-05-16T05:44:42.049Z,90.90
2023-05-16T05:45:42.081Z,91.41
2023-05-16T05:46:42.048Z,91.20
2023-05-16T05:47:42.093Z,91.11
2023-05-16T05:48:42.008Z,90.90
2023-05-16T05:49:41.991Z,90.70
2023-05-16T05:50:41.994Z,90.80
2023-05-16T05:51:41.961Z,90.70
2023-05-16T05:52:41.963Z,90.49
2023-05-16T05:53:42.021Z,90.90
2023-05-16T05:54:41.994Z,91.00
2023-05-16T05:55:41.936Z,90.90
2023-05-16T05:56:41.938Z,90.90
2023-05-16T05:57:41.922Z,90.90
2023-05-16T05:58:41.908Z,90.90
2023-05-16T05:59:41.897Z,90.90
2023-05-16T06:00:41.984Z,90.86
2023-05-16T06:01:41.894Z,91.00
2023-05-16T06:02:42.113Z,91.11
2023-05-16T06:03:41.828Z,90.90
2023-05-16T06:04:41.878Z,90.90
2023-05-16T06:05:41.887Z,90.70
2023-05-16T06:06:41.807Z,90.35
2023-05-16T06:07:41.830Z,89.94
2023-05-16T06:08:41.840Z,89.47
2023-05-16T06:09:41.800Z,89.58
2023-05-16T06:10:41.873Z,89.37
2023-05-16T06:11:41.890Z,89.37
2023-05-16T06:12:42.577Z,89.58
2023-05-16T06:13:41.760Z,89.67
2023-05-16T06:14:41.764Z,88.82
2023-05-16T06:15:41.751Z,88.45
2023-05-16T06:16:41.763Z,88.55
2023-05-16T06:17:41.799Z,88.31
2023-05-16T06:18:41.704Z,87.94
2023-05-16T06:19:41.710Z,88.65
2023-05-16T06:20:41.805Z,88.92
2023-05-16T06:21:41.686Z,87.45
2023-05-16T06:22:41.672Z,86.88
2023-05-16T06:23:41.858Z,87.38
2023-05-16T06:24:41.713Z,87.79
2023-05-16T06:25:41.641Z,87.85
2023-05-16T06:26:41.668Z,86.67
2023-05-16T06:27:41.657Z,86.73
2023-05-16T06:28:41.567Z,86.98
2023-05-16T06:29:41.648Z,87.08
2023-05-16T06:30:41.602Z,87.04
2023-05-16T06:31:41.673Z,86.12
2023-05-16T06:32:41.725Z,86.02
2023-05-16T06:33:41.584Z,86.26
2023-05-16T06:34:41.527Z,86.98
2023-05-16T06:35:41.567Z,86.73
2023-05-16T06:36:41.517Z,86.53
2023-05-16T06:37:43.131Z,86.33
2023-05-16T06:38:41.477Z,85.57
2023-05-16T06:39:41.477Z,85.27
2023-05-16T06:40:41.485Z,85.88
2023-05-16T06:41:41.475Z,85.27
2023-05-16T06:42:41.861Z,85.51
2023-05-16T06:43:41.454Z,85.41
2023-05-16T06:44:41.426Z,85.41
2023-05-16T06:45:41.420Z,85.41
2023-05-16T06:46:41.442Z,85.41
2023-05-16T06:47:41.478Z,85.51
2023-05-16T06:48:41.358Z,86.33
2023-05-16T06:49:41.352Z,85.82
2023-05-16T06:50:41.547Z,85.51
2023-05-16T06:51:41.353Z,85.61
2023-05-16T06:52:41.364Z,85.61
2023-05-16T06:53:41.343Z,85.86
2023-05-16T06:54:41.342Z,85.92
2023-05-16T06:55:41.283Z,85.96
2023-05-16T06:56:41.402Z,86.61
2023-05-16T06:57:41.306Z,86.67
2023-05-16T06:58:41.318Z,86.47
2023-05-16T06:59:41.324Z,86.36
2023-05-16T07:00:41.262Z,86.12
2023-05-16T07:01:41.382Z,85.61
2023-05-16T07:02:41.337Z,85.06
2023-05-16T07:03:41.280Z,84.96
2023-05-16T07:04:41.365Z,84.96
2023-05-16T07:05:41.223Z,84.04
2023-05-16T07:06:41.188Z,85.00
2023-05-16T07:07:41.250Z,85.41
2023-05-16T07:08:41.311Z,85.37
2023-05-16T07:09:41.238Z,84.66
2023-05-16T07:10:41.238Z,84.66
2023-05-16T07:11:42.177Z,84.59
2023-05-16T07:12:41.203Z,85.00
2023-05-16T07:13:41.112Z,85.30
2023-05-16T07:14:41.192Z,85.30
2023-05-16T07:15:41.174Z,85.00
2023-05-16T07:16:41.181Z,84.75
2023-05-16T07:17:41.175Z,84.80
2023-05-16T07:18:41.165Z,85.00
2023-05-16T07:19:41.048Z,85.51
2023-05-16T07:20:41.088Z,85.41
2023-05-16T07:21:41.042Z,85.30
2023-05-16T07:22:41.043Z,85.30
2023-05-16T07:23:41.066Z,85.21
2023-05-16T07:24:41.033Z,84.90
2023-05-16T07:25:41.007Z,84.80
2023-05-16T07:26:40.981Z,84.69
2023-05-16T07:27:41.134Z,85.00
2023-05-16T07:28:41.026Z,85.00
2023-05-16T07:29:40.929Z,84.75
2023-05-16T07:30:40.938Z,84.55
2023-05-16T07:31:40.993Z,84.45
2023-05-16T07:32:41.024Z,84.45
2023-05-16T07:33:40.987Z,83.94
2023-05-16T07:34:40.894Z,83.80
2023-05-16T07:35:40.948Z,83.84
2023-05-16T07:36:40.907Z,83.59
2023-05-16T07:37:40.848Z,83.63
2023-05-16T07:38:40.914Z,83.94
2023-05-16T07:39:40.911Z,83.73
2023-05-16T07:40:41.690Z,83.09
2023-05-16T07:41:40.852Z,83.29
2023-05-16T07:42:40.830Z,82.88
2023-05-16T07:43:40.820Z,82.88
2023-05-16T07:44:40.823Z,82.13
2023-05-16T07:45:40.803Z,81.82
2023-05-16T07:46:40.839Z,81.07
2023-05-16T07:47:40.809Z,81.11
2023-05-16T07:48:40.786Z,81.11
2023-05-16T07:49:40.751Z,81.96
2023-05-16T07:50:40.757Z,81.86
2023-05-16T07:51:40.745Z,81.96
2023-05-16T07:52:40.755Z,82.37
2023-05-16T07:53:40.686Z,81.96
2023-05-16T07:54:40.714Z,82.57
2023-05-16T07:55:40.779Z,82.47
2023-05-16T07:56:40.664Z,82.27
2023-05-16T07:57:40.658Z,81.82
2023-05-16T07:58:40.647Z,81.21
2023-05-16T07:59:40.674Z,80.70
2023-05-16T08:00:40.667Z,80.80
2023-05-16T08:01:40.617Z,81.01
2023-05-16T08:02:40.783Z,80.94
2023-05-16T08:03:40.679Z,81.21
2023-05-16T08:04:40.604Z,80.46
2023-05-16T08:05:40.695Z,79.99
2023-05-16T08:06:40.563Z,80.19
2023-05-16T08:07:40.565Z,80.70
2023-05-16T08:08:40.546Z,81.41
2023-05-16T08:09:40.600Z,80.66
2023-05-16T08:10:40.539Z,80.70
2023-05-16T08:11:40.508Z,80.19
2023-05-16T08:12:40.580Z,80.80
2023-05-16T08:13:40.560Z,81.04
2023-05-16T08:14:40.511Z,81.45
2023-05-16T08:15:40.530Z,81.66
2023-05-16T08:16:40.569Z,81.96
2023-05-16T08:17:40.497Z,81.90
2023-05-16T08:18:40.466Z,82.37
2023-05-16T08:19:40.534Z,81.86
2023-05-16T08:20:40.453Z,81.76
2023-05-16T08:21:40.440Z,81.56
2023-05-16T08:22:40.430Z,81.21
2023-05-16T08:23:40.474Z,81.59
2023-05-16T08:24:40.369Z,82.31
2023-05-16T08:25:40.382Z,82.86
2023-05-16T08:26:40.374Z,83.02
2023-05-16T08:27:40.369Z,82.61
2023-05-16T08:28:40.316Z,82.61
2023-05-16T08:29:40.428Z,82.21
2023-05-16T08:30:42.638Z,82.31
2023-05-16T08:31:40.425Z,82.31
2023-05-16T08:32:40.430Z,82.24
2023-05-16T08:33:40.259Z,82.14
2023-05-16T08:34:40.318Z,82.21
2023-05-16T08:35:40.314Z,81.80
2023-05-16T08:36:40.235Z,82.00
2023-05-16T08:37:40.242Z,82.31
2023-05-16T08:38:40.379Z,81.90
2023-05-16T08:39:40.225Z,81.59
2023-05-16T08:40:40.216Z,81.70
2023-05-16T08:41:40.208Z,81.59
2023-05-16T08:42:40.185Z,81.56
2023-05-16T08:43:40.195Z,81.49
2023-05-16T08:44:40.164Z,81.59
2023-05-16T08:45:40.159Z,81.49
2023-05-16T08:46:40.233Z,81.39
2023-05-16T08:47:40.177Z,81.39
2023-05-16T08:48:40.211Z,81.18
2023-05-16T08:49:40.126Z,81.25
2023-05-16T08:50:40.149Z,80.43
2023-05-16T08:51:40.099Z,80.54
2023-05-16T08:52:40.056Z,80.33
2023-05-16T08:53:40.096Z,80.54
2023-05-16T08:54:40.056Z,80.54
2023-05-16T08:55:40.062Z,80.43
2023-05-16T08:56:40.046Z,80.33
2023-05-16T08:57:40.190Z,80.13
2023-05-16T08:58:40.251Z,80.13
2023-05-16T08:59:40.008Z,79.79
2023-05-16T09:00:40.084Z,79.48
2023-05-16T09:01:40.110Z,79.27
2023-05-16T09:02:40.072Z,79.17
2023-05-16T09:03:40.349Z,79.07
2023-05-16T09:04:39.915Z,79.07
2023-05-16T09:05:39.946Z,79.07
2023-05-16T09:06:39.923Z,79.27
2023-05-16T09:07:39.940Z,79.27
2023-05-16T09:08:39.982Z,79.07
2023-05-16T09:09:39.916Z,79.07
2023-05-16T09:10:39.906Z,78.77
2023-05-16T09:11:39.922Z,78.77
2023-05-16T09:12:39.876Z,78.66
2023-05-16T09:13:39.887Z,78.66
2023-05-16T09:14:39.842Z,78.05
2023-05-16T09:15:39.842Z,77.85
2023-05-16T09:16:39.863Z,78.05
2023-05-16T09:17:41.753Z,78.02
2023-05-16T09:18:39.896Z,77.71
2023-05-16T09:19:39.844Z,78.16
2023-05-16T09:20:39.812Z,78.05
2023-05-16T09:21:39.824Z,78.19
2023-05-16T09:22:39.788Z,78.91
2023-05-16T09:23:39.745Z,78.80
2023-05-16T09:24:39.898Z,78.60
2023-05-16T09:25:39.853Z,79.00
2023-05-16T09:26:39.778Z,78.36
2023-05-16T09:27:39.706Z,78.05
2023-05-16T09:28:39.771Z,77.75
2023-05-16T09:29:39.695Z,78.05
2023-05-16T09:30:39.690Z,77.81
2023-05-16T09:31:39.748Z,77.71
2023-05-16T09:32:39.746Z,78.05
2023-05-16T09:33:39.654Z,78.05
2023-05-16T09:34:39.642Z,77.81
2023-05-16T09:35:45.328Z,77.61
2023-05-16T09:36:42.229Z,78.02
2023-05-16T09:37:39.629Z,77.85
2023-05-16T09:38:39.587Z,78.26
2023-05-16T09:39:40.089Z,78.36
2023-05-16T09:40:39.557Z,78.16
2023-05-16T09:41:39.614Z,77.85
2023-05-16T09:42:39.566Z,77.75
2023-05-16T09:43:41.601Z,77.20
2023-05-16T09:44:39.554Z,77.10
2023-05-16T09:45:39.548Z,77.10
2023-05-16T09:46:39.598Z,76.90
2023-05-16T09:47:39.602Z,76.69
2023-05-16T09:48:39.505Z,76.56
2023-05-16T09:49:39.676Z,75.30
2023-05-16T09:50:39.489Z,74.58
2023-05-16T09:51:39.534Z,74.32
2023-05-16T09:52:39.527Z,74.32
2023-05-16T09:53:39.566Z,74.52
2023-05-16T09:54:39.417Z,74.52
2023-05-16T09:55:39.518Z,74.01
2023-05-16T09:56:39.496Z,74.11
2023-05-16T09:57:39.527Z,74.41
2023-05-16T09:58:39.492Z,74.72
2023-05-16T09:59:39.423Z,73.80
2023-05-16T10:00:39.453Z,74.21
2023-05-16T10:01:39.437Z,74.18
2023-05-16T10:02:39.382Z,74.38
2023-05-16T10:03:39.448Z,74.28
2023-05-16T10:04:39.699Z,74.41
2023-05-16T10:05:39.363Z,74.62
2023-05-16T10:06:39.517Z,75.02
2023-05-16T10:07:39.284Z,75.13
2023-05-16T10:08:39.283Z,75.13
2023-05-16T10:09:39.311Z,75.23
2023-05-16T10:10:39.292Z,75.33
2023-05-16T10:11:39.269Z,75.27
2023-05-16T10:12:39.233Z,75.88
2023-05-16T10:13:39.236Z,75.84
2023-05-16T10:14:39.278Z,75.64
2023-05-16T10:15:39.240Z,75.67
2023-05-16T10:16:39.276Z,76.59
2023-05-16T10:17:39.284Z,76.59
2023-05-16T10:18:39.212Z,76.59
2023-05-16T10:19:39.350Z,76.49
2023-05-16T10:20:39.317Z,76.69
2023-05-16T10:21:39.141Z,76.69
2023-05-16T10:22:39.163Z,76.90
2023-05-16T10:23:39.147Z,76.90
2023-05-16T10:24:39.150Z,77.00
2023-05-16T10:25:39.135Z,76.79
2023-05-16T10:26:39.819Z,76.69
2023-05-16T10:27:39.208Z,76.45
2023-05-16T10:28:39.178Z,76.21
2023-05-16T10:29:52.911Z,75.50
2023-05-16T10:30:40.073Z,75.20
2023-05-16T10:31:39.109Z,75.84
2023-05-16T10:32:41.200Z,76.56
2023-05-16T10:33:39.104Z,76.35
2023-05-16T10:34:38.994Z,76.59
2023-05-16T10:35:39.009Z,77.44
2023-05-16T10:36:38.974Z,77.64
2023-05-16T10:37:38.960Z,77.51
2023-05-16T10:38:39.030Z,77.30
2023-05-16T10:39:39.007Z,77.20
2023-05-16T10:40:39.004Z,77.17
2023-05-16T10:41:38.982Z,76.42
2023-05-16T10:42:39.099Z,75.60
2023-05-16T10:43:39.041Z,75.46
2023-05-16T10:44:38.920Z,75.06
2023-05-16T10:45:38.929Z,75.26
2023-05-16T10:46:38.929Z,75.23
2023-05-16T10:47:39.143Z,74.45
2023-05-16T10:48:39.021Z,75.09
2023-05-16T10:49:38.993Z,75.70
2023-05-16T10:50:38.925Z,76.35
2023-05-16T10:51:38.941Z,76.56
2023-05-16T10:52:38.851Z,76.96
2023-05-16T10:53:38.887Z,77.40
2023-05-16T10:54:38.938Z,77.81
2023-05-16T10:55:38.922Z,77.87
2023-05-16T10:56:38.760Z,77.57
2023-05-16T10:57:38.804Z,77.57
2023-05-16T10:58:38.820Z,77.91
2023-05-16T10:59:38.823Z,78.12
2023-05-16T11:00:38.728Z,78.42
2023-05-16T11:01:38.763Z,78.42
2023-05-16T11:02:38.915Z,78.53
2023-05-16T11:03:38.938Z,78.63
2023-05-16T11:04:38.716Z,78.22
2023-05-16T11:05:38.694Z,77.91
2023-05-16T11:06:38.890Z,78.02
2023-05-16T11:07:38.693Z,78.26
2023-05-16T11:08:38.728Z,78.46
2023-05-16T11:09:38.880Z,78.05
2023-05-16T11:10:38.752Z,78.36
2023-05-16T11:11:38.692Z,78.05
2023-05-16T11:12:38.606Z,76.73
2023-05-16T11:13:38.584Z,76.53
2023-05-16T11:14:38.646Z,76.32
2023-05-16T11:15:38.823Z,75.60
2023-05-16T11:16:38.732Z,75.40
2023-05-16T11:17:39.987Z,74.96
2023-05-16T11:18:38.659Z,74.96
2023-05-16T11:19:38.749Z,74.72
2023-05-16T11:20:38.700Z,73.67
2023-05-16T11:21:38.527Z,73.16
2023-05-16T11:22:38.526Z,72.25
2023-05-16T11:23:38.527Z,72.55
2023-05-16T11:24:38.542Z,72.65
2023-05-16T11:25:38.785Z,72.34
2023-05-16T11:26:38.469Z,71.73
2023-05-16T11:27:39.118Z,71.40
2023-05-16T11:28:38.606Z,71.02
2023-05-16T11:29:38.518Z,71.33
2023-05-16T11:30:38.463Z,71.53
2023-05-16T11:31:38.463Z,71.53
2023-05-16T11:32:38.437Z,71.19
2023-05-16T11:33:38.435Z,70.89
2023-05-16T11:34:38.369Z,70.99
2023-05-16T11:35:38.407Z,70.68
2023-05-16T11:36:38.375Z,70.68
2023-05-16T11:37:38.383Z,71.12
2023-05-16T11:38:38.474Z,71.19
2023-05-16T11:39:40.334Z,71.43
2023-05-16T11:40:38.381Z,71.43
2023-05-16T11:41:38.325Z,71.64
2023-05-16T11:42:38.315Z,72.14
2023-05-16T11:43:38.302Z,71.84
2023-05-16T11:44:38.356Z,71.53
2023-05-16T11:45:38.256Z,71.40
2023-05-16T11:46:38.306Z,70.99
2023-05-16T11:47:38.326Z,70.25
2023-05-16T11:48:38.318Z,69.40
2023-05-16T11:49:38.382Z,68.28
2023-05-16T11:50:38.288Z,68.08
2023-05-16T11:51:38.263Z,67.44
2023-05-16T11:52:38.241Z,66.93
2023-05-16T11:53:38.356Z,66.12
2023-05-16T11:54:38.342Z,66.76
2023-05-16T11:55:42.446Z,67.06
2023-05-16T11:56:38.186Z,66.76
2023-05-16T11:57:38.233Z,66.42
2023-05-16T11:58:38.164Z,65.91
2023-05-16T11:59:38.167Z,65.30
2023-05-16T12:00:38.088Z,65.61
2023-05-16T12:01:38.117Z,65.58
2023-05-16T12:02:38.183Z,64.56
2023-05-16T12:03:38.445Z,64.36
2023-05-16T12:04:38.347Z,64.97
2023-05-16T12:05:38.269Z,64.76
2023-05-16T12:06:38.150Z,64.56
2023-05-16T12:07:38.201Z,64.46
2023-05-16T12:08:59.083Z,64.67
2023-05-16T12:09:39.406Z,64.87
2023-05-16T12:10:38.034Z,64.87
2023-05-16T12:11:38.023Z,65.07
2023-05-16T12:12:38.097Z,65.71
2023-05-16T12:13:37.983Z,66.55
2023-05-16T12:14:38.034Z,66.76
2023-05-16T12:15:38.101Z,66.76
2023-05-16T12:16:37.989Z,67.40
2023-05-16T12:17:38.082Z,67.50
2023-05-16T12:18:37.986Z,67.47
2023-05-16T12:19:37.922Z,67.50
2023-05-16T12:20:37.989Z,68.11
2023-05-16T12:21:37.988Z,68.52
2023-05-16T12:22:38.003Z,68.72
2023-05-16T12:23:37.884Z,68.72
2023-05-16T12:24:38.316Z,68.49
2023-05-16T12:25:37.915Z,68.18
2023-05-16T12:26:37.960Z,68.28
2023-05-16T12:27:39.398Z,67.94
2023-05-16T12:29:50.069Z,66.69
2023-05-16T12:30:51.639Z,65.88
2023-05-16T12:31:52.546Z,65.68
2023-05-16T12:32:50.393Z,66.26
2023-05-16T12:33:50.394Z,64.50
2023-05-16T12:34:50.409Z,64.00
2023-05-16T12:39:37.513Z,63.26
2023-05-16T12:40:36.879Z,62.75
2023-05-16T12:41:37.019Z,61.83
2023-05-16T12:42:36.859Z,61.87
2023-05-16T12:43:36.854Z,62.27
2023-05-16T12:44:36.815Z,62.24
2023-05-16T12:45:36.813Z,62.24
2023-05-16T12:46:36.930Z,62.72
2023-05-16T12:52:29.093Z,58.96
2023-05-16T12:53:29.371Z,59.06
2023-05-16T12:54:29.396Z,59.47
2023-05-16T12:55:29.368Z,58.86
2023-05-16T12:56:29.374Z,59.09
2023-05-16T12:57:29.330Z,58.99
2023-05-16T12:58:29.349Z,59.39
2023-05-16T12:59:29.378Z,58.58
2023-05-16T13:01:44.670Z,58.38
2023-05-16T13:02:44.987Z,57.07
2023-05-16T13:03:44.893Z,57.50
2023-05-16T13:04:44.809Z,57.98